sensor_id;sensor_type;location;lat;lon;timestamp;pressure;altitude;pressure_sealevel;temperature;humidity
72438;BME280;60444;43.534;-5.674;2023-05-01T00:02:12;102251.56;;;17.04;100.00
72438;BME280;60444;43.534;-5.674;2023-05-01T00:04:38;102252.28;;;17.07;100.00
72438;BME280;60444;43.534;-5.674;2023-05-01T00:07:03;102244.47;;;17.00;100.00
72438;BME280;60444;43.534;-5.674;2023-05-01T00:09:29;102250.25;;;17.11;100.00
72438;BME280;60444;43.534;-5.674;2023-05-01T00:11:56;102246.56;;;17.12;100.00
72438;BME280;60444;43.534;-5.674;2023-05-01T00:14:21;102239.31;;;17.11;100.00
72438;BME280;60444;43.534;-5.674;2023-05-01T00:16:47;102238.34;;;17.12;100.00
72438;BME280;60444;43.534;-5.674;2023-05-01T00:19:13;102223.41;;;17.02;100.00
72438;BME280;60444;43.534;-5.674;2023-05-01T00:21:44;102226.88;;;17.05;100.00
72438;BME280;60444;43.534;-5.674;2023-05-01T00:24:10;102234.56;;;17.14;100.00
72438;BME280;60444;43.534;-5.674;2023-05-01T00:26:35;102233.78;;;17.12;100.00
72438;BME280;60444;43.534;-5.674;2023-05-01T00:29:01;102198.94;;;16.99;100.00
72438;BME280;60444;43.534;-5.674;2023-05-01T00:31:27;102219.13;;;17.13;100.00
72438;BME280;60444;43.534;-5.674;2023-05-01T00:33:53;102219.91;;;17.15;100.00
72438;BME280;60444;43.534;-5.674;2023-05-01T00:36:19;102208.44;;;17.09;100.00
72438;BME280;60444;43.534;-5.674;2023-05-01T00:38:47;102211.25;;;17.07;100.00
72438;BME280;60444;43.534;-5.674;2023-05-01T00:41:12;102213.66;;;17.13;100.00
72438;BME280;60444;43.534;-5.674;2023-05-01T00:43:38;102198.53;;;17.06;100.00
72438;BME280;60444;43.534;-5.674;2023-05-01T00:46:03;102189.63;;;17.03;100.00
72438;BME280;60444;43.534;-5.674;2023-05-01T00:48:30;102206.53;;;17.11;100.00
72438;BME280;60444;43.534;-5.674;2023-05-01T00:50:57;102195.91;;;17.05;100.00
72438;BME280;60444;43.534;-5.674;2023-05-01T00:53:22;102212.63;;;17.16;100.00
72438;BME280;60444;43.534;-5.674;2023-05-01T00:55:50;102197.41;;;17.10;100.00
72438;BME280;60444;43.534;-5.674;2023-05-01T00:58:16;102183.13;;;17.05;100.00
72438;BME280;60444;43.534;-5.674;2023-05-01T01:00:43;102171.28;;;17.05;100.00
72438;BME280;60444;43.534;-5.674;2023-05-01T01:03:11;102177.47;;;17.08;100.00
72438;BME280;60444;43.534;-5.674;2023-05-01T01:05:44;102181.19;;;17.07;100.00
72438;BME280;60444;43.534;-5.674;2023-05-01T01:08:25;102173.00;;;17.07;100.00
72438;BME280;60444;43.534;-5.674;2023-05-01T01:13:54;102170.34;;;17.06;100.00
72438;BME280;60444;43.534;-5.674;2023-05-01T01:16:30;102156.81;;;17.03;100.00
72438;BME280;60444;43.534;-5.674;2023-05-01T01:19:32;102160.69;;;16.99;100.00
72438;BME280;60444;43.534;-5.674;2023-05-01T01:22:04;102162.56;;;16.98;100.00
72438;BME280;60444;43.534;-5.674;2023-05-01T01:25:09;102151.84;;;16.94;100.00
72438;BME280;60444;43.534;-5.674;2023-05-01T01:31:08;102148.88;;;16.98;100.00
72438;BME280;60444;43.534;-5.674;2023-05-01T01:36:31;102143.72;;;16.92;100.00
72438;BME280;60444;43.534;-5.674;2023-05-01T01:41:33;102141.09;;;16.91;100.00
72438;BME280;60444;43.534;-5.674;2023-05-01T01:44:22;102129.53;;;16.86;100.00
72438;BME280;60444;43.534;-5.674;2023-05-01T01:46:51;102137.47;;;16.90;100.00
72438;BME280;60444;43.534;-5.674;2023-05-01T01:49:22;102142.13;;;16.88;100.00
72438;BME280;60444;43.534;-5.674;2023-05-01T01:51:49;102137.09;;;16.81;100.00
72438;BME280;60444;43.534;-5.674;2023-05-01T01:54:20;102135.09;;;16.84;100.00
72438;BME280;60444;43.534;-5.674;2023-05-01T01:56:47;102134.38;;;16.81;100.00
72438;BME280;60444;43.534;-5.674;2023-05-01T01:59:14;102120.31;;;16.71;100.00
72438;BME280;60444;43.534;-5.674;2023-05-01T02:01:42;102126.56;;;16.73;100.00
72438;BME280;60444;43.534;-5.674;2023-05-01T02:04:09;102135.09;;;16.67;100.00
72438;BME280;60444;43.534;-5.674;2023-05-01T02:06:37;102098.91;;;16.45;100.00
72438;BME280;60444;43.534;-5.674;2023-05-01T02:09:04;102116.75;;;16.52;100.00
72438;BME280;60444;43.534;-5.674;2023-05-01T02:11:34;102119.56;;;16.50;100.00
72438;BME280;60444;43.534;-5.674;2023-05-01T02:14:01;102114.44;;;16.44;100.00
72438;BME280;60444;43.534;-5.674;2023-05-01T02:16:28;102113.03;;;16.36;100.00
72438;BME280;60444;43.534;-5.674;2023-05-01T02:18:55;102121.94;;;16.39;100.00
72438;BME280;60444;43.534;-5.674;2023-05-01T02:21:21;102114.19;;;16.32;100.00
72438;BME280;60444;43.534;-5.674;2023-05-01T02:23:48;102130.16;;;16.39;100.00
72438;BME280;60444;43.534;-5.674;2023-05-01T02:26:15;102123.72;;;16.40;100.00
72438;BME280;60444;43.534;-5.674;2023-05-01T02:28:46;102107.84;;;16.31;100.00
72438;BME280;60444;43.534;-5.674;2023-05-01T02:31:11;102107.91;;;16.30;100.00
72438;BME280;60444;43.534;-5.674;2023-05-01T02:33:37;102120.38;;;16.35;100.00
72438;BME280;60444;43.534;-5.674;2023-05-01T02:36:02;102082.84;;;16.22;100.00
72438;BME280;60444;43.534;-5.674;2023-05-01T02:38:29;102104.38;;;16.28;100.00
72438;BME280;60444;43.534;-5.674;2023-05-01T02:40:58;102088.38;;;16.20;100.00
72438;BME280;60444;43.534;-5.674;2023-05-01T02:43:27;102099.06;;;16.25;100.00
72438;BME280;60444;43.534;-5.674;2023-05-01T02:45:57;102096.78;;;16.16;100.00
72438;BME280;60444;43.534;-5.674;2023-05-01T02:48:26;102102.84;;;16.22;100.00
72438;BME280;60444;43.534;-5.674;2023-05-01T02:50:56;102095.94;;;16.15;100.00
72438;BME280;60444;43.534;-5.674;2023-05-01T02:53:22;102098.00;;;16.10;100.00
72438;BME280;60444;43.534;-5.674;2023-05-01T02:55:49;102096.41;;;16.06;100.00
72438;BME280;60444;43.534;-5.674;2023-05-01T02:58:15;102109.81;;;16.11;100.00
72438;BME280;60444;43.534;-5.674;2023-05-01T03:00:41;102111.66;;;16.10;100.00
72438;BME280;60444;43.534;-5.674;2023-05-01T03:03:07;102106.53;;;16.04;100.00
72438;BME280;60444;43.534;-5.674;2023-05-01T03:05:32;102084.50;;;15.90;100.00
72438;BME280;60444;43.534;-5.674;2023-05-01T03:07:58;102111.09;;;16.04;100.00
72438;BME280;60444;43.534;-5.674;2023-05-01T03:10:23;102110.34;;;16.00;100.00
72438;BME280;60444;43.534;-5.674;2023-05-01T03:12:49;102088.34;;;15.86;100.00
72438;BME280;60444;43.534;-5.674;2023-05-01T03:15:14;102080.31;;;15.83;100.00
72438;BME280;60444;43.534;-5.674;2023-05-01T03:17:40;102085.44;;;15.89;100.00
72438;BME280;60444;43.534;-5.674;2023-05-01T03:20:09;102080.16;;;15.86;100.00
72438;BME280;60444;43.534;-5.674;2023-05-01T03:22:35;102095.81;;;16.00;100.00
72438;BME280;60444;43.534;-5.674;2023-05-01T03:25:01;102084.44;;;15.92;100.00
72438;BME280;60444;43.534;-5.674;2023-05-01T03:27:28;102094.63;;;15.88;100.00
72438;BME280;60444;43.534;-5.674;2023-05-01T03:29:55;102115.81;;;16.00;100.00
72438;BME280;60444;43.534;-5.674;2023-05-01T03:32:20;102106.09;;;15.95;100.00
72438;BME280;60444;43.534;-5.674;2023-05-01T03:34:47;102085.78;;;15.83;100.00
72438;BME280;60444;43.534;-5.674;2023-05-01T03:37:12;102096.38;;;15.89;100.00
72438;BME280;60444;43.534;-5.674;2023-05-01T03:39:39;102093.72;;;15.88;100.00
72438;BME280;60444;43.534;-5.674;2023-05-01T03:42:05;102113.66;;;16.07;100.00
72438;BME280;60444;43.534;-5.674;2023-05-01T03:44:30;102121.91;;;16.05;100.00
72438;BME280;60444;43.534;-5.674;2023-05-01T03:46:57;102123.72;;;16.06;100.00
72438;BME280;60444;43.534;-5.674;2023-05-01T03:49:22;102122.66;;;16.09;100.00
72438;BME280;60444;43.534;-5.674;2023-05-01T03:51:48;102097.69;;;15.99;100.00
72438;BME280;60444;43.534;-5.674;2023-05-01T03:54:14;102114.38;;;16.10;100.00
72438;BME280;60444;43.534;-5.674;2023-05-01T03:56:39;102118.81;;;16.13;100.00
72438;BME280;60444;43.534;-5.674;2023-05-01T03:59:05;102105.41;;;16.08;100.00
72438;BME280;60444;43.534;-5.674;2023-05-01T04:01:30;102079.22;;;16.04;100.00
72438;BME280;60444;43.534;-5.674;2023-05-01T04:03:58;102094.50;;;16.08;100.00
72438;BME280;60444;43.534;-5.674;2023-05-01T04:06:23;102087.41;;;16.04;100.00
72438;BME280;60444;43.534;-5.674;2023-05-01T04:08:50;102091.75;;;16.08;100.00
72438;BME280;60444;43.534;-5.674;2023-05-01T04:11:16;102076.78;;;15.98;100.00
72438;BME280;60444;43.534;-5.674;2023-05-01T04:13:41;102072.41;;;15.96;100.00
72438;BME280;60444;43.534;-5.674;2023-05-01T04:16:07;102068.06;;;15.92;100.00
72438;BME280;60444;43.534;-5.674;2023-05-01T04:18:32;102102.16;;;16.00;100.00
72438;BME280;60444;43.534;-5.674;2023-05-01T04:20:58;102102.34;;;15.97;100.00
72438;BME280;60444;43.534;-5.674;2023-05-01T04:23:23;102095.44;;;15.90;100.00
72438;BME280;60444;43.534;-5.674;2023-05-01T04:25:49;102086.44;;;15.88;100.00
72438;BME280;60444;43.534;-5.674;2023-05-01T04:28:17;102092.03;;;15.85;100.00
72438;BME280;60444;43.534;-5.674;2023-05-01T04:30:42;102078.72;;;15.79;100.00
72438;BME280;60444;43.534;-5.674;2023-05-01T04:33:08;102098.44;;;15.84;100.00
72438;BME280;60444;43.534;-5.674;2023-05-01T04:35:37;102092.19;;;15.82;100.00
72438;BME280;60444;43.534;-5.674;2023-05-01T04:38:07;102079.66;;;15.78;100.00
72438;BME280;60444;43.534;-5.674;2023-05-01T04:40:33;102067.44;;;15.68;100.00
72438;BME280;60444;43.534;-5.674;2023-05-01T04:42:58;102090.56;;;15.78;100.00
72438;BME280;60444;43.534;-5.674;2023-05-01T04:45:25;102085.03;;;15.80;100.00
72438;BME280;60444;43.534;-5.674;2023-05-01T04:47:50;102079.81;;;15.75;100.00
72438;BME280;60444;43.534;-5.674;2023-05-01T04:50:16;102075.38;;;15.73;100.00
72438;BME280;60444;43.534;-5.674;2023-05-01T04:52:41;102091.53;;;15.77;100.00
72438;BME280;60444;43.534;-5.674;2023-05-01T04:55:07;102079.91;;;15.74;100.00
72438;BME280;60444;43.534;-5.674;2023-05-01T04:57:35;102071.44;;;15.61;100.00
72438;BME280;60444;43.534;-5.674;2023-05-01T05:00:01;102067.91;;;15.59;100.00
72438;BME280;60444;43.534;-5.674;2023-05-01T05:02:28;102084.25;;;15.59;100.00
72438;BME280;60444;43.534;-5.674;2023-05-01T05:04:53;102098.47;;;15.66;100.00
72438;BME280;60444;43.534;-5.674;2023-05-01T05:07:21;102101.28;;;15.64;100.00
72438;BME280;60444;43.534;-5.674;2023-05-01T05:09:46;102105.03;;;15.62;100.00
72438;BME280;60444;43.534;-5.674;2023-05-01T05:12:12;102096.28;;;15.55;100.00
72438;BME280;60444;43.534;-5.674;2023-05-01T05:14:39;102076.75;;;15.45;100.00
72438;BME280;60444;43.534;-5.674;2023-05-01T05:17:05;102099.00;;;15.55;100.00
72438;BME280;60444;43.534;-5.674;2023-05-01T05:19:30;102100.91;;;15.53;100.00
72438;BME280;60444;43.534;-5.674;2023-05-01T05:21:56;102097.25;;;15.54;100.00
72438;BME280;60444;43.534;-5.674;2023-05-01T05:24:22;102075.06;;;15.43;100.00
72438;BME280;60444;43.534;-5.674;2023-05-01T05:26:47;102088.25;;;15.52;100.00
72438;BME280;60444;43.534;-5.674;2023-05-01T05:29:13;102059.84;;;15.37;100.00
72438;BME280;60444;43.534;-5.674;2023-05-01T05:31:39;102073.16;;;15.45;100.00
72438;BME280;60444;43.534;-5.674;2023-05-01T05:34:04;102074.91;;;15.46;100.00
72438;BME280;60444;43.534;-5.674;2023-05-01T05:36:30;102066.00;;;15.42;100.00
72438;BME280;60444;43.534;-5.674;2023-05-01T05:38:56;102081.03;;;15.51;100.00
72438;BME280;60444;43.534;-5.674;2023-05-01T05:41:21;102090.91;;;15.53;100.00
72438;BME280;60444;43.534;-5.674;2023-05-01T05:43:47;102087.44;;;15.50;100.00
72438;BME280;60444;43.534;-5.674;2023-05-01T05:46:12;102088.09;;;15.55;100.00
72438;BME280;60444;43.534;-5.674;2023-05-01T05:48:38;102064.81;;;15.48;100.00
72438;BME280;60444;43.534;-5.674;2023-05-01T05:51:03;102073.72;;;15.51;100.00
72438;BME280;60444;43.534;-5.674;2023-05-01T05:53:29;102078.97;;;15.56;100.00
72438;BME280;60444;43.534;-5.674;2023-05-01T05:55:54;102088.75;;;15.60;100.00
72438;BME280;60444;43.534;-5.674;2023-05-01T05:58:20;102069.97;;;15.54;100.00
72438;BME280;60444;43.534;-5.674;2023-05-01T06:00:47;102091.34;;;15.63;100.00
72438;BME280;60444;43.534;-5.674;2023-05-01T06:03:15;102082.91;;;15.68;100.00
72438;BME280;60444;43.534;-5.674;2023-05-01T06:05:44;102060.00;;;15.53;100.00
72438;BME280;60444;43.534;-5.674;2023-05-01T06:08:10;102079.28;;;15.67;100.00
72438;BME280;60444;43.534;-5.674;2023-05-01T06:10:36;102087.56;;;15.66;100.00
72438;BME280;60444;43.534;-5.674;2023-05-01T06:13:04;102099.00;;;15.74;100.00
72438;BME280;60444;43.534;-5.674;2023-05-01T06:15:32;102092.47;;;15.76;100.00
72438;BME280;60444;43.534;-5.674;2023-05-01T06:17:58;102096.75;;;15.82;100.00
72438;BME280;60444;43.534;-5.674;2023-05-01T06:20:23;102097.63;;;15.82;100.00
72438;BME280;60444;43.534;-5.674;2023-05-01T06:22:49;102102.16;;;15.83;100.00
72438;BME280;60444;43.534;-5.674;2023-05-01T06:25:14;102073.53;;;15.73;100.00
72438;BME280;60444;43.534;-5.674;2023-05-01T06:27:40;102094.63;;;15.88;100.00
72438;BME280;60444;43.534;-5.674;2023-05-01T06:30:06;102103.38;;;15.95;100.00
72438;BME280;60444;43.534;-5.674;2023-05-01T06:32:33;102096.06;;;15.95;100.00
72438;BME280;60444;43.534;-5.674;2023-05-01T06:34:58;102114.72;;;16.04;100.00
72438;BME280;60444;43.534;-5.674;2023-05-01T06:37:24;102098.31;;;16.04;100.00
72438;BME280;60444;43.534;-5.674;2023-05-01T06:39:50;102087.53;;;16.01;100.00
72438;BME280;60444;43.534;-5.674;2023-05-01T06:42:15;102080.34;;;16.00;100.00
72438;BME280;60444;43.534;-5.674;2023-05-01T06:44:41;102106.69;;;16.18;100.00
72438;BME280;60444;43.534;-5.674;2023-05-01T06:47:07;102090.13;;;16.21;100.00
72438;BME280;60444;43.534;-5.674;2023-05-01T06:49:32;102050.16;;;16.03;100.00
72438;BME280;60444;43.534;-5.674;2023-05-01T06:51:58;102099.38;;;16.36;100.00
72438;BME280;60444;43.534;-5.674;2023-05-01T06:54:24;102094.63;;;16.39;100.00
72438;BME280;60444;43.534;-5.674;2023-05-01T06:56:52;102089.03;;;16.42;100.00
72438;BME280;60444;43.534;-5.674;2023-05-01T06:59:17;102069.59;;;16.31;100.00
72438;BME280;60444;43.534;-5.674;2023-05-01T07:01:43;102076.50;;;16.38;100.00
72438;BME280;60444;43.534;-5.674;2023-05-01T07:04:09;102084.28;;;16.46;100.00
72438;BME280;60444;43.534;-5.674;2023-05-01T07:06:35;102101.81;;;16.59;100.00
72438;BME280;60444;43.534;-5.674;2023-05-01T07:09:04;102096.28;;;16.61;100.00
72438;BME280;60444;43.534;-5.674;2023-05-01T07:11:29;102096.75;;;16.69;100.00
72438;BME280;60444;43.534;-5.674;2023-05-01T07:13:56;102092.88;;;16.73;100.00
72438;BME280;60444;43.534;-5.674;2023-05-01T07:16:22;102099.06;;;16.76;100.00
72438;BME280;60444;43.534;-5.674;2023-05-01T07:18:48;102083.88;;;16.71;100.00
72438;BME280;60444;43.534;-5.674;2023-05-01T07:21:14;102083.56;;;16.77;100.00
72438;BME280;60444;43.534;-5.674;2023-05-01T07:23:39;102077.22;;;16.76;100.00
72438;BME280;60444;43.534;-5.674;2023-05-01T07:26:05;102109.19;;;16.91;100.00
72438;BME280;60444;43.534;-5.674;2023-05-01T07:28:31;102086.41;;;16.91;100.00
72438;BME280;60444;43.534;-5.674;2023-05-01T07:30:56;102112.44;;;16.98;100.00
72438;BME280;60444;43.534;-5.674;2023-05-01T07:33:22;102111.66;;;16.96;100.00
72438;BME280;60444;43.534;-5.674;2023-05-01T07:35:50;102125.63;;;17.07;100.00
72438;BME280;60444;43.534;-5.674;2023-05-01T07:38:16;102101.53;;;16.98;100.00
72438;BME280;60444;43.534;-5.674;2023-05-01T07:40:42;102118.03;;;17.12;100.00
72438;BME280;60444;43.534;-5.674;2023-05-01T07:43:07;102111.75;;;17.10;100.00
72438;BME280;60444;43.534;-5.674;2023-05-01T07:45:38;102102.00;;;17.06;100.00
72438;BME280;60444;43.534;-5.674;2023-05-01T07:48:05;102120.03;;;17.25;100.00
72438;BME280;60444;43.534;-5.674;2023-05-01T07:50:30;102124.59;;;17.25;100.00
72438;BME280;60444;43.534;-5.674;2023-05-01T07:52:56;102117.91;;;17.30;100.00
72438;BME280;60444;43.534;-5.674;2023-05-01T07:55:22;102112.16;;;17.35;100.00
72438;BME280;60444;43.534;-5.674;2023-05-01T07:57:48;102103.75;;;17.22;100.00
72438;BME280;60444;43.534;-5.674;2023-05-01T08:00:14;102120.22;;;17.38;100.00
72438;BME280;60444;43.534;-5.674;2023-05-01T08:02:40;102104.31;;;17.29;100.00
72438;BME280;60444;43.534;-5.674;2023-05-01T08:05:06;102106.25;;;17.27;100.00
72438;BME280;60444;43.534;-5.674;2023-05-01T08:07:32;102121.09;;;17.38;100.00
72438;BME280;60444;43.534;-5.674;2023-05-01T08:09:57;102110.50;;;17.32;100.00
72438;BME280;60444;43.534;-5.674;2023-05-01T08:12:25;102120.03;;;17.41;100.00
72438;BME280;60444;43.534;-5.674;2023-05-01T08:14:51;102121.97;;;17.39;100.00
72438;BME280;60444;43.534;-5.674;2023-05-01T08:17:16;102128.84;;;17.46;100.00
72438;BME280;60444;43.534;-5.674;2023-05-01T08:19:42;102123.28;;;17.49;100.00
72438;BME280;60444;43.534;-5.674;2023-05-01T08:22:09;102105.75;;;17.36;100.00
72438;BME280;60444;43.534;-5.674;2023-05-01T08:24:35;102130.50;;;17.50;100.00
72438;BME280;60444;43.534;-5.674;2023-05-01T08:27:01;102114.47;;;17.42;100.00
72438;BME280;60444;43.534;-5.674;2023-05-01T08:29:26;102144.78;;;17.55;100.00
72438;BME280;60444;43.534;-5.674;2023-05-01T08:31:52;102126.31;;;17.43;100.00
72438;BME280;60444;43.534;-5.674;2023-05-01T08:34:17;102141.19;;;17.54;100.00
72438;BME280;60444;43.534;-5.674;2023-05-01T08:36:43;102142.22;;;17.52;100.00
72438;BME280;60444;43.534;-5.674;2023-05-01T08:39:08;102112.63;;;17.43;100.00
72438;BME280;60444;43.534;-5.674;2023-05-01T08:41:34;102132.28;;;17.51;100.00
72438;BME280;60444;43.534;-5.674;2023-05-01T08:44:02;102142.06;;;17.55;100.00
72438;BME280;60444;43.534;-5.674;2023-05-01T08:46:48;102134.53;;;17.58;100.00
72438;BME280;60444;43.534;-5.674;2023-05-01T08:49:15;102133.50;;;17.61;100.00
72438;BME280;60444;43.534;-5.674;2023-05-01T08:51:45;102129.97;;;17.59;100.00
72438;BME280;60444;43.534;-5.674;2023-05-01T08:54:15;102132.78;;;17.57;100.00
72438;BME280;60444;43.534;-5.674;2023-05-01T08:56:50;102164.13;;;17.68;100.00
72438;BME280;60444;43.534;-5.674;2023-05-01T08:59:17;102142.69;;;17.60;100.00
72438;BME280;60444;43.534;-5.674;2023-05-01T09:01:44;102131.91;;;17.57;100.00
72438;BME280;60444;43.534;-5.674;2023-05-01T09:04:12;102150.72;;;17.63;100.00
72438;BME280;60444;43.534;-5.674;2023-05-01T09:06:38;102160.53;;;17.67;100.00
72438;BME280;60444;43.534;-5.674;2023-05-01T09:09:05;102142.69;;;17.60;100.00
72438;BME280;60444;43.534;-5.674;2023-05-01T09:11:31;102166.97;;;17.66;100.00
72438;BME280;60444;43.534;-5.674;2023-05-01T09:13:57;102179.59;;;17.69;100.00
72438;BME280;60444;43.534;-5.674;2023-05-01T09:16:25;102165.53;;;17.59;100.00
72438;BME280;60444;43.534;-5.674;2023-05-01T09:18:51;102172.84;;;17.58;100.00
72438;BME280;60444;43.534;-5.674;2023-05-01T09:21:17;102188.94;;;17.65;100.00
72438;BME280;60444;43.534;-5.674;2023-05-01T09:23:43;102163.41;;;17.48;100.00
72438;BME280;60444;43.534;-5.674;2023-05-01T09:26:08;102189.13;;;17.62;100.00
72438;BME280;60444;43.534;-5.674;2023-05-01T09:28:41;102191.16;;;17.58;100.00
72438;BME280;60444;43.534;-5.674;2023-05-01T09:31:28;102191.78;;;17.63;100.00
72438;BME280;60444;43.534;-5.674;2023-05-01T09:33:59;102191.31;;;17.55;100.00
72438;BME280;60444;43.534;-5.674;2023-05-01T09:36:27;102202.69;;;17.47;100.00
72438;BME280;60444;43.534;-5.674;2023-05-01T09:38:53;102192.84;;;17.43;100.00
72438;BME280;60444;43.534;-5.674;2023-05-01T09:41:19;102196.63;;;17.41;100.00
72438;BME280;60444;43.534;-5.674;2023-05-01T09:44:16;102202.38;;;17.36;100.00
72438;BME280;60444;43.534;-5.674;2023-05-01T09:46:41;102196.25;;;17.31;100.00
72438;BME280;60444;43.534;-5.674;2023-05-01T09:49:08;102180.44;;;17.21;100.00
72438;BME280;60444;43.534;-5.674;2023-05-01T09:51:33;102208.97;;;17.32;100.00
72438;BME280;60444;43.534;-5.674;2023-05-01T09:54:01;102207.03;;;17.34;100.00
72438;BME280;60444;43.534;-5.674;2023-05-01T09:56:28;102221.56;;;17.35;100.00
72438;BME280;60444;43.534;-5.674;2023-05-01T09:58:55;102201.91;;;17.28;100.00
72438;BME280;60444;43.534;-5.674;2023-05-01T10:01:42;102200.69;;;17.34;100.00
72438;BME280;60444;43.534;-5.674;2023-05-01T10:04:09;102202.72;;;17.46;100.00
72438;BME280;60444;43.534;-5.674;2023-05-01T10:06:35;102175.72;;;17.40;100.00
72438;BME280;60444;43.534;-5.674;2023-05-01T10:09:02;102187.63;;;17.39;100.00
72438;BME280;60444;43.534;-5.674;2023-05-01T10:11:27;102175.06;;;17.35;100.00
72438;BME280;60444;43.534;-5.674;2023-05-01T10:14:09;102175.38;;;17.46;100.00
72438;BME280;60444;43.534;-5.674;2023-05-01T10:16:36;102168.22;;;17.43;100.00
72438;BME280;60444;43.534;-5.674;2023-05-01T10:19:03;102156.31;;;17.44;100.00
72438;BME280;60444;43.534;-5.674;2023-05-01T10:21:29;102172.00;;;17.41;100.00
72438;BME280;60444;43.534;-5.674;2023-05-01T10:24:00;102169.97;;;17.44;100.00
72438;BME280;60444;43.534;-5.674;2023-05-01T10:26:32;102172.09;;;17.39;100.00
72438;BME280;60444;43.534;-5.674;2023-05-01T10:29:00;102159.25;;;17.24;100.00
72438;BME280;60444;43.534;-5.674;2023-05-01T10:31:26;102180.91;;;17.29;100.00
72438;BME280;60444;43.534;-5.674;2023-05-01T10:33:54;102166.59;;;17.24;100.00
72438;BME280;60444;43.534;-5.674;2023-05-01T10:38:47;102191.66;;;17.32;100.00
72438;BME280;60444;43.534;-5.674;2023-05-01T10:41:14;102190.44;;;17.37;100.00
72438;BME280;60444;43.534;-5.674;2023-05-01T10:43:43;102163.59;;;17.28;100.00
72438;BME280;60444;43.534;-5.674;2023-05-01T10:51:12;102158.50;;;17.38;100.00
72438;BME280;60444;43.534;-5.674;2023-05-01T10:53:40;102150.25;;;17.22;100.00
72438;BME280;60444;43.534;-5.674;2023-05-01T11:01:39;102153.06;;;17.21;100.00
72438;BME280;60444;43.534;-5.674;2023-05-01T11:12:04;102130.34;;;17.20;100.00
72438;BME280;60444;43.534;-5.674;2023-05-01T11:20:04;102144.66;;;17.41;100.00
72438;BME280;60444;43.534;-5.674;2023-05-01T11:22:31;102143.69;;;17.42;100.00
72438;BME280;60444;43.534;-5.674;2023-05-01T11:24:57;102139.28;;;17.39;100.00
72438;BME280;60444;43.534;-5.674;2023-05-01T11:27:22;102142.72;;;17.43;100.00
72438;BME280;60444;43.534;-5.674;2023-05-01T11:29:49;102111.31;;;17.34;100.00
72438;BME280;60444;43.534;-5.674;2023-05-01T11:32:17;102117.38;;;17.24;100.00
72438;BME280;60444;43.534;-5.674;2023-05-01T11:34:43;102118.41;;;17.21;100.00
72438;BME280;60444;43.534;-5.674;2023-05-01T11:37:09;102120.56;;;17.32;100.00
72438;BME280;60444;43.534;-5.674;2023-05-01T11:39:34;102114.13;;;17.33;100.00
72438;BME280;60444;43.534;-5.674;2023-05-01T11:42:07;102110.31;;;17.35;100.00
72438;BME280;60444;43.534;-5.674;2023-05-01T11:44:33;102129.56;;;17.34;100.00
72438;BME280;60444;43.534;-5.674;2023-05-01T11:46:59;102103.00;;;17.20;100.00
72438;BME280;60444;43.534;-5.674;2023-05-01T11:49:26;102092.06;;;17.20;100.00
72438;BME280;60444;43.534;-5.674;2023-05-01T11:51:56;102125.31;;;17.28;100.00
72438;BME280;60444;43.534;-5.674;2023-05-01T11:54:22;102125.31;;;17.28;100.00
72438;BME280;60444;43.534;-5.674;2023-05-01T11:56:56;102107.84;;;17.31;100.00
72438;BME280;60444;43.534;-5.674;2023-05-01T11:59:23;102100.44;;;17.33;100.00
72438;BME280;60444;43.534;-5.674;2023-05-01T12:01:50;102111.41;;;17.33;100.00
72438;BME280;60444;43.534;-5.674;2023-05-01T12:04:24;102108.38;;;17.37;100.00
72438;BME280;60444;43.534;-5.674;2023-05-01T12:06:50;102096.03;;;17.30;100.00
72438;BME280;60444;43.534;-5.674;2023-05-01T12:09:24;102101.22;;;17.35;100.00
72438;BME280;60444;43.534;-5.674;2023-05-01T12:11:52;102093.28;;;17.30;100.00
72438;BME280;60444;43.534;-5.674;2023-05-01T12:14:19;102106.25;;;17.42;100.00
72438;BME280;60444;43.534;-5.674;2023-05-01T12:16:46;102106.44;;;17.39;100.00
72438;BME280;60444;43.534;-5.674;2023-05-01T12:19:13;102086.41;;;17.39;100.00
72438;BME280;60444;43.534;-5.674;2023-05-01T12:21:39;102100.97;;;17.39;100.00
72438;BME280;60444;43.534;-5.674;2023-05-01T12:24:12;102071.31;;;17.32;100.00
72438;BME280;60444;43.534;-5.674;2023-05-01T12:26:42;102062.31;;;17.30;100.00
72438;BME280;60444;43.534;-5.674;2023-05-01T12:29:09;102080.78;;;17.42;100.00
72438;BME280;60444;43.534;-5.674;2023-05-01T12:31:44;102083.75;;;17.37;100.00
72438;BME280;60444;43.534;-5.674;2023-05-01T12:34:10;102105.66;;;17.37;100.00
72438;BME280;60444;43.534;-5.674;2023-05-01T12:36:37;102089.53;;;17.48;100.00
72438;BME280;60444;43.534;-5.674;2023-05-01T12:39:08;102091.94;;;17.54;100.00
72438;BME280;60444;43.534;-5.674;2023-05-01T12:41:40;102084.97;;;17.49;100.00
72438;BME280;60444;43.534;-5.674;2023-05-01T12:44:20;102062.97;;;17.50;100.00
72438;BME280;60444;43.534;-5.674;2023-05-01T12:47:03;102077.56;;;17.51;100.00
72438;BME280;60444;43.534;-5.674;2023-05-01T12:49:30;102064.09;;;17.46;100.00
72438;BME280;60444;43.534;-5.674;2023-05-01T12:51:58;102078.59;;;17.48;100.00
72438;BME280;60444;43.534;-5.674;2023-05-01T12:54:30;102074.88;;;17.49;100.00
72438;BME280;60444;43.534;-5.674;2023-05-01T12:57:10;102055.53;;;17.37;100.00
72438;BME280;60444;43.534;-5.674;2023-05-01T12:59:37;102080.91;;;17.56;100.00
72438;BME280;60444;43.534;-5.674;2023-05-01T13:04:36;102076.47;;;17.53;100.00
72438;BME280;60444;43.534;-5.674;2023-05-01T13:07:10;102060.84;;;17.55;100.00
72438;BME280;60444;43.534;-5.674;2023-05-01T13:09:35;102037.13;;;17.56;100.00
72438;BME280;60444;43.534;-5.674;2023-05-01T13:12:03;102071.72;;;17.57;100.00
72438;BME280;60444;43.534;-5.674;2023-05-01T13:14:39;102069.59;;;17.62;100.00